OLRA weather

Rayak Air Base
Rayak, Beqaa Governorate, Lebanon

Public forecast

Using degrees Celsius for public forecast. Weather courtesy of forecast.io.

METAR (pilot weather report)

Closest report is Beirut Rafic Hariri International Airport, 25.0 nm (46.2 km) W. Retrieved 2019/08/17 21:00 UTC (45 minutes ago):

OLBA 172100Z 15007KT 9999 FEW026 27/21 Q1008 NOSIG

TAF (pilot weather forecast)

Forecast is more than 12 hours old.

Closest forecast is Beirut Rafic Hariri International Airport, 25.0 nm (46.2 km) W. Retrieved 2019/08/17 06:00 UTC (16 hours ago):

TAF OLBA 170400Z 1706/1812 23015KT 8000 SCT025 TEMPO 1706/1718 5000 BR BKN025 BECMG 1718/1721 17010KT BECMG 1806/1809 22015KT